AirNav   ProFlight Series 2 Aviation Headset
 
 947 users online  

20FD Pratt Airport
Greenville, Florida, USA

GOING TO GREENVILLE?


FAA INFORMATION EFFECTIVE 16 JULY 2020

Location

FAA Identifier: 20FD
Lat/Long: 30-25-31.7510N 083-34-33.5460W
30-25.529183N 083-34.559100W
30.4254864,-83.5759850
(estimated)
Elevation: 100 ft. / 30 m (estimated)
Variation: 02W (1985)
From city: 5 miles SE of GREENVILLE, FL
Time zone: UTC -4 (UTC -5 during Standard Time)
Zip code: 32340

Airport Operations

Airport use: Private use. Permission required prior to landing
Activation date: 05/1991
Control tower: no
ARTCC: JACKSONVILLE CENTER
FSS: GAINESVILLE FLIGHT SERVICE STATION
Attendance: UNATNDD
Wind indicator: yes
Segmented circle: no

Nearby radio navigation aids

VOR radial/distance  VOR name  Freq  Var
GEFr124/13.1GREENVILLE VORTAC109.0001E
OTKr218/26.2VALDOSTA VOR/DME114.8002W

 
NDB name  Hdg/Dist  Freq  Var  ID
PATON163/34.424505WGTP --. - .--.

Airport Services

Runway Information

Runway 17/35

Dimensions: 3070 x 100 ft. / 936 x 30 m
Surface: turf
RUNWAY 17  RUNWAY 35
Traffic pattern: leftleft
Displaced threshold: 800 ft.800 ft.
Obstructions: 50 ft. trees, 350 ft. from runway40 ft. trees, 200 ft. from runway

Airport Ownership and Management from official FAA records

Ownership: Privately-owned
Owner: DCB & COMPANY, INC
ROUTE 4, BOX 264B
GREENVILLE, FL 32338
Phone 850-948-3090
Manager: DOUGLAS C. BALLARD
ROUTE 4, BOX 264B
GREENVILLE, FL 32338
Phone 850-948-3090

Airport Operational Statistics

Aircraft based on the field: 1
Single engine airplanes: 1
    

Additional Remarks

FOR CD CTC TALLAHASSEE APCH AT 850-942-8311, WHEN APCH CLSD CTC JACKSONVILLE ARTCC AT 904-845-1592.

Instrument Procedures

There are no published instrument procedures at 20FD.

Some nearby airports with instrument procedures:

KFPY - Perry-Foley Airport (21 nm S)
4J5 - Quitman Brooks County Airport (23 nm N)
KVLD - Valdosta Regional Airport (26 nm NE)
24J - Suwannee County Airport (30 nm E)
KTVI - Thomasville Regional Airport (33 nm NW)
 
Loc | Ops | Rwys | IFR | FBO | Links
Com | Nav | Svcs | Stats | Notes
Area around 20FD (Pratt Airport)
 
Road maps at: MapQuest Bing Google
 
Aerial photo
No photo
 
Sectional chart

 
Airport distance calculator
Flying to Pratt Airport? Find the distance to fly.

From to 20FD

Sunrise and sunset
Times for 09-Aug-2020
 Local
(UTC-4)
 Zulu
(UTC)
Morning civil twilight06:3310:33
Sunrise06:5910:59
Sunset20:2000:20
Evening civil twilight20:4600:46

Current date and time
Zulu (UTC)  09-Aug-2020 13:33:43
Local (UTC-4)  09-Aug-2020 09:33:43
 
METAR
KFPY 
21nm S 
091315Z AUTO 00000KT 10SM CLR 28/27 A3018 RMK AO2 T02800267
KVLD 
26nm NE 
091253Z AUTO 00000KT 10SM CLR 27/24 A3017 RMK AO2 SLP222 T02720239
K24J 
30nm E 
091315Z AUTO 00000KT 10SM FEW034 27/27 A3018 RMK A01
KTVI 
33nm NW 
091315Z AUTO 36004KT 10SM SCT002 27/23 A3018 RMK AO2
KVAD 
38nm NE 
091256Z AUTO 00000KT 10SM CLR 27/24 A3017 RMK AO2 SLP217 T02730243 $
KTLH 
40nm W 
091253Z VRB03KT 10SM FEW030 FEW250 27/26 A3017 RMK AO2 SLP214 CB DSNT SE T02720256
KMGR 
41nm N 
091315Z AUTO 32003KT 10SM CLR 26/23 A3018 RMK AO2
TAF
KVLD 
26nm NE 
091120Z 0912/1012 VRB04KT P6SM SCT050 FM091900 24005KT P6SM VCTS SCT050CB FM100100 22004KT P6SM SCT060
NOTAMs
Click for the latest NOTAMs
NOTAMs are issued by the DoD/FAA and will open in a separate window not controlled by AirNav.

 

 
 

Would you like to see your business listed on this page?

 If your business provides an interesting product or service to pilots, flight crews, aircraft, or users of the Pratt Airport, you should consider listing it here.  To start the listing process, click on the button below
 
Add a business
 

Other Pages about Pratt Airport

Update a link
 
Copyright © AirNav, LLC. All rights reserved. Privacy Policy  Contact